createdAt,value
2023-04-08T00:02:32.781Z,95029.69
2023-04-08T00:05:01.857Z,95032.94
2023-04-08T00:07:29.052Z,95037.19
2023-04-08T00:09:57.877Z,95044.31
2023-04-08T00:12:26.776Z,95042.47
2023-04-08T00:14:58.065Z,95039.84
2023-04-08T00:20:02.192Z,95040.88
2023-04-08T00:22:33.474Z,95044.31
2023-04-08T00:25:02.289Z,95032.13
2023-04-08T00:27:28.978Z,95039.22
2023-04-08T00:35:10.652Z,95040.25
2023-04-08T00:37:43.386Z,95044.72
2023-04-08T00:40:13.131Z,95040.25
2023-04-08T00:45:34.946Z,95041.06
2023-04-08T00:48:07.727Z,95050.81
2023-04-08T00:50:36.565Z,95050.00
2023-04-08T00:53:05.719Z,95048.16
2023-04-08T00:55:39.675Z,95046.34
2023-04-08T00:58:09.412Z,95049.19
2023-04-08T01:00:36.352Z,95055.50
2023-04-08T01:03:15.774Z,95054.47
2023-04-08T01:06:13.687Z,95056.09
2023-04-08T01:08:40.621Z,95058.97
2023-04-08T01:11:08.527Z,95059.75
2023-04-08T01:13:37.320Z,95054.47
2023-04-08T01:16:04.419Z,95053.69
2023-04-08T01:18:34.129Z,95052.84
2023-04-08T01:21:03.161Z,95054.47
2023-04-08T01:23:39.587Z,95054.47
2023-04-08T01:26:08.503Z,95058.13
2023-04-08T01:31:13.499Z,95058.13
2023-04-08T01:33:44.760Z,95056.50
2023-04-08T01:36:11.382Z,95052.84
2023-04-08T01:38:38.347Z,95053.88
2023-04-08T01:41:05.005Z,95047.56
2023-04-08T01:43:35.174Z,95045.94
2023-04-08T01:46:03.961Z,95056.50
2023-04-08T01:48:35.295Z,95061.00
2023-04-08T01:51:07.651Z,95056.50
2023-04-08T01:53:43.515Z,95053.28
2023-04-08T01:58:54.839Z,95060.78
2023-04-08T02:01:24.814Z,95058.13
2023-04-08T02:03:52.334Z,95061.78
2023-04-08T02:08:57.437Z,95068.09
2023-04-08T02:11:26.182Z,95072.78
2023-04-08T02:13:57.502Z,95076.03
2023-04-08T02:16:30.078Z,95077.63
2023-04-08T02:19:01.985Z,95076.03
2023-04-08T02:21:36.281Z,95077.63
2023-04-08T02:24:07.850Z,95076.84
2023-04-08T02:26:41.068Z,95078.06
2023-04-08T02:29:10.229Z,95075.22
2023-04-08T02:31:39.161Z,95077.03
2023-04-08T02:34:11.293Z,95069.94
2023-04-08T02:36:42.611Z,95076.84
2023-04-08T02:41:58.656Z,95084.97
2023-04-08T02:44:30.232Z,95081.31
2023-04-08T02:47:02.187Z,95078.66
2023-04-08T02:52:09.249Z,95072.78
2023-04-08T02:54:38.456Z,95074.41
2023-04-08T02:57:10.049Z,95079.69
2023-04-08T02:59:37.836Z,95077.03
2023-04-08T03:02:09.276Z,95078.66
2023-04-08T03:04:36.113Z,95077.03
2023-04-08T03:07:08.802Z,95084.97
2023-04-08T03:09:35.823Z,95084.97
2023-04-08T03:12:04.637Z,95088.63
2023-04-08T03:14:33.536Z,95084.97
2023-04-08T03:17:00.632Z,95078.88
2023-04-08T03:19:29.565Z,95080.72
2023-04-08T03:21:58.672Z,95072.78
2023-04-08T03:24:25.421Z,95074.59
2023-04-08T03:29:31.255Z,95077.47
2023-04-08T03:32:01.307Z,95081.72
2023-04-08T03:34:32.982Z,95078.06
2023-04-08T03:37:01.857Z,95087.00
2023-04-08T03:39:28.533Z,95085.16
2023-04-08T03:41:59.874Z,95080.91
2023-04-08T03:44:29.462Z,95092.28
2023-04-08T03:46:58.261Z,95079.09
2023-04-08T03:52:07.131Z,95082.94
2023-04-08T03:54:38.642Z,95081.72
2023-04-08T03:57:07.575Z,95077.25
2023-04-08T03:59:36.446Z,95073.81
2023-04-08T04:02:05.289Z,95080.91
2023-04-08T04:04:34.299Z,95084.38
2023-04-08T04:07:01.005Z,95081.72
2023-04-08T04:09:27.648Z,95072.78
2023-04-08T04:11:58.986Z,95076.44
2023-04-08T04:14:30.591Z,95081.72
2023-04-08T04:19:39.580Z,95081.72
2023-04-08T04:22:06.406Z,95090.66
2023-04-08T04:24:33.034Z,95093.31
2023-04-08T04:29:48.520Z,95094.34
2023-04-08T04:32:20.422Z,95092.72
2023-04-08T04:34:47.069Z,95099.38
2023-04-08T04:37:18.310Z,95097.56
2023-04-08T04:39:47.149Z,95097.56
2023-04-08T04:42:13.975Z,95099.63
2023-04-08T04:44:43.190Z,95088.22
2023-04-08T04:47:09.814Z,95094.34
2023-04-08T04:49:40.337Z,95088.22
2023-04-08T04:52:11.777Z,95092.72
2023-04-08T04:54:44.306Z,95095.34
2023-04-08T05:00:20.469Z,95094.75
2023-04-08T05:02:47.336Z,95108.56
2023-04-08T05:05:22.867Z,95098.19
2023-04-08T05:07:54.528Z,95106.50
2023-04-08T05:10:33.027Z,95102.03
2023-04-08T05:13:08.397Z,95091.09
2023-04-08T05:15:40.798Z,95096.38
2023-04-08T05:18:09.641Z,95098.00
2023-04-08T05:20:38.931Z,95103.88
2023-04-08T05:23:10.328Z,95095.94
2023-04-08T05:25:42.292Z,95096.38
2023-04-08T05:28:11.102Z,95100.41
2023-04-08T05:30:39.921Z,95100.41
2023-04-08T05:35:49.878Z,95101.22
2023-04-08T05:38:16.675Z,95101.22
2023-04-08T05:40:46.378Z,95106.50
2023-04-08T05:43:15.471Z,95102.84
2023-04-08T05:48:26.423Z,95097.56
2023-04-08T05:50:55.329Z,95092.28
2023-04-08T05:53:26.740Z,95094.09
2023-04-08T05:55:57.842Z,95093.91
2023-04-08T05:58:26.684Z,95098.38
2023-04-08T06:00:55.610Z,95099.19
2023-04-08T06:03:24.629Z,95101.00
2023-04-08T06:05:51.520Z,95099.19
2023-04-08T06:08:26.882Z,95097.56
2023-04-08T06:10:53.518Z,95095.53
2023-04-08T06:13:22.038Z,95092.09
2023-04-08T06:15:51.103Z,95100.00
2023-04-08T06:18:19.868Z,95095.53
2023-04-08T06:23:40.176Z,95099.00
2023-04-08T06:26:14.487Z,95095.53
2023-04-08T06:28:41.274Z,95095.53
2023-04-08T06:33:48.885Z,95091.28
2023-04-08T06:36:20.591Z,95097.97
2023-04-08T06:38:47.218Z,95098.75
2023-04-08T06:41:13.902Z,95098.75
2023-04-08T06:43:45.666Z,95102.44
2023-04-08T06:46:15.072Z,95104.03
2023-04-08T06:48:42.012Z,95097.16
2023-04-08T06:51:11.606Z,95110.94
2023-04-08T06:53:40.509Z,95110.34
2023-04-08T06:56:07.280Z,95105.66
2023-04-08T06:58:36.245Z,95107.72
2023-04-08T07:01:05.863Z,95109.31
2023-04-08T07:03:37.305Z,95107.50
2023-04-08T07:06:08.916Z,95104.03
2023-04-08T07:08:39.323Z,95105.66
2023-04-08T07:11:11.342Z,95098.75
2023-04-08T07:13:40.382Z,95107.50
2023-04-08T07:16:07.227Z,95108.31
2023-04-08T07:18:38.643Z,95107.72
2023-04-08T07:21:07.606Z,95104.63
2023-04-08T07:23:38.963Z,95113.38
2023-04-08T07:26:05.781Z,95115.19
2023-04-08T07:28:38.162Z,95114.41
2023-04-08T07:31:17.871Z,95116.81
2023-04-08T07:33:50.895Z,95121.91
2023-04-08T07:36:25.240Z,95123.13
2023-04-08T07:39:03.647Z,95117.06
2023-04-08T07:41:30.271Z,95114.81
2023-04-08T07:43:59.132Z,95124.34
2023-04-08T07:46:29.058Z,95127.00
2023-04-08T07:48:58.868Z,95129.63
2023-04-08T07:51:27.944Z,95125.97
2023-04-08T07:53:54.638Z,95131.25
2023-04-08T07:56:22.443Z,95135.50
2023-04-08T07:58:53.337Z,95139.75
2023-04-08T08:01:23.073Z,95139.75
2023-04-08T08:03:53.823Z,95139.53
2023-04-08T08:06:20.976Z,95144.03
2023-04-08T08:08:55.584Z,95143.00
2023-04-08T08:11:24.407Z,95151.53
2023-04-08T08:13:53.374Z,95149.91
2023-04-08T08:19:02.059Z,95134.88
2023-04-08T08:21:28.638Z,95144.19
2023-04-08T08:23:56.922Z,95145.81
2023-04-08T08:26:28.307Z,95145.81
2023-04-08T08:28:57.438Z,95145.81
2023-04-08T08:31:24.119Z,95147.44
2023-04-08T08:33:53.178Z,95147.44
2023-04-08T08:36:22.604Z,95152.72
2023-04-08T08:38:49.210Z,95147.44
2023-04-08T08:41:16.056Z,95151.09
2023-04-08T08:43:44.862Z,95150.31
2023-04-08T08:46:20.497Z,95154.38
2023-04-08T08:48:47.285Z,95149.09
2023-04-08T08:51:16.623Z,95153.53
2023-04-08T08:53:46.774Z,95145.22
2023-04-08T08:56:18.430Z,95147.44
2023-04-08T08:58:50.414Z,95154.38
2023-04-08T09:01:32.721Z,95159.66
2023-04-08T09:04:18.313Z,95163.28
2023-04-08T09:06:51.109Z,95164.94
2023-04-08T09:09:23.280Z,95164.94
2023-04-08T09:11:54.579Z,95155.16
2023-04-08T09:14:27.619Z,95150.69
2023-04-08T09:16:54.340Z,95157.59
2023-04-08T09:19:25.739Z,95153.13
2023-04-08T09:22:11.120Z,95152.91
2023-04-08T09:24:43.227Z,95148.66
2023-04-08T09:27:14.546Z,95151.06
2023-04-08T09:29:45.985Z,95151.88
2023-04-08T09:32:14.822Z,95150.88
2023-04-08T09:34:43.678Z,95138.47
2023-04-08T09:37:12.721Z,95140.91
2023-04-08T09:39:45.316Z,95142.50
2023-04-08T09:42:19.420Z,95141.06
2023-04-08T09:44:48.733Z,95131.91
2023-04-08T09:47:23.760Z,95137.59
2023-04-08T09:49:53.920Z,95138.81
2023-04-08T09:52:27.345Z,95129.88
2023-04-08T09:55:10.435Z,95124.16
2023-04-08T09:57:56.744Z,95121.09
2023-04-08T10:00:30.706Z,95126.16
2023-04-08T10:03:09.696Z,95121.25
2023-04-08T10:05:38.162Z,95115.53
2023-04-08T10:08:05.959Z,95118.78
2023-04-08T10:10:37.169Z,95109.84
2023-04-08T10:13:06.988Z,95115.72
2023-04-08T10:15:39.606Z,95120.00
2023-04-08T10:18:06.491Z,95109.41
2023-04-08T10:20:38.945Z,95113.09
2023-04-08T10:23:13.516Z,95102.91
2023-04-08T10:25:46.044Z,95101.31
2023-04-08T10:28:17.597Z,95101.53
2023-04-08T10:30:53.948Z,95101.75
2023-04-08T10:33:29.599Z,95102.75
2023-04-08T10:36:11.728Z,95098.50
2023-04-08T10:38:42.425Z,95100.34
2023-04-08T10:41:14.217Z,95096.88
2023-04-08T10:43:41.122Z,95093.22
2023-04-08T10:46:10.527Z,95091.59
2023-04-08T10:48:37.255Z,95086.31
2023-04-08T10:51:07.203Z,95087.13
2023-04-08T10:53:37.217Z,95078.97
2023-04-08T10:56:08.089Z,95085.88
2023-04-08T10:58:37.932Z,95079.13
2023-04-08T11:01:09.851Z,95073.25
2023-04-08T11:03:37.620Z,95070.63
2023-04-08T11:06:07.082Z,95072.47
2023-04-08T11:08:36.391Z,95069.22
2023-04-08T11:11:04.084Z,95072.66
2023-04-08T11:13:30.892Z,95067.38
2023-04-08T11:15:58.978Z,95066.34
2023-04-08T11:18:32.515Z,95071.63
2023-04-08T11:21:00.313Z,95065.75
2023-04-08T11:23:27.429Z,95057.84
2023-04-08T11:25:59.083Z,95059.44
2023-04-08T11:28:31.162Z,95049.69
2023-04-08T11:30:59.965Z,95048.88
2023-04-08T11:33:33.103Z,95038.31
2023-04-08T11:36:04.057Z,95041.53
2023-04-08T11:38:30.761Z,95045.81
2023-04-08T11:40:58.923Z,95039.91
2023-04-08T11:43:28.717Z,95041.53
2023-04-08T11:45:55.409Z,95031.78
2023-04-08T11:48:22.142Z,95029.34
2023-04-08T11:51:04.566Z,95034.63
2023-04-08T11:53:31.181Z,95036.25
2023-04-08T11:55:57.861Z,95030.38
2023-04-08T11:58:24.486Z,95027.72
2023-04-08T12:00:53.221Z,95025.69
2023-04-08T12:03:22.434Z,95027.31
2023-04-08T12:05:49.265Z,95015.13
2023-04-08T12:08:18.619Z,95015.13
2023-04-08T12:10:47.657Z,95009.81
2023-04-08T12:13:14.254Z,95011.44
2023-04-08T12:15:41.209Z,95009.81
2023-04-08T12:18:10.011Z,95009.81
2023-04-08T12:20:36.686Z,95004.53
2023-04-08T12:23:05.450Z,95002.91
2023-04-08T12:25:34.476Z,95002.91
2023-04-08T12:28:01.404Z,95002.72
2023-04-08T12:30:30.244Z,94989.72
2023-04-08T12:32:57.981Z,94987.06
2023-04-08T12:35:27.394Z,94994.41
2023-04-08T12:37:56.931Z,95001.31
2023-04-08T12:40:23.563Z,95003.94
2023-04-08T12:42:50.242Z,94989.13
2023-04-08T12:45:16.873Z,94989.13
2023-04-08T12:47:45.680Z,94987.31
2023-04-08T12:50:14.649Z,94996.25
2023-04-08T12:52:41.415Z,94989.13
2023-04-08T12:55:08.359Z,94994.41
2023-04-08T12:57:35.144Z,94992.78
2023-04-08T13:00:01.883Z,94984.88
2023-04-08T13:02:33.319Z,94987.50
2023-04-08T13:05:02.168Z,94994.41
2023-04-08T13:10:07.274Z,94979.78
2023-04-08T13:12:40.222Z,94989.56
2023-04-08T13:15:10.128Z,94992.78
2023-04-08T13:17:36.848Z,95001.75
2023-04-08T13:20:04.365Z,94994.63
2023-04-08T13:22:34.296Z,94996.47
2023-04-08T13:25:05.572Z,94995.88
2023-04-08T13:27:34.429Z,95000.94
2023-04-08T13:30:05.848Z,94997.50
2023-04-08T13:32:34.800Z,94994.84
2023-04-08T13:35:06.215Z,94994.84
2023-04-08T13:37:35.052Z,94992.41
2023-04-08T13:40:02.372Z,94990.59
2023-04-08T13:42:31.523Z,94989.56
2023-04-08T13:45:02.955Z,94991.63
2023-04-08T13:47:29.632Z,94994.25
2023-04-08T13:49:56.596Z,94996.91
2023-04-08T13:52:25.784Z,94997.69
2023-04-08T13:55:01.109Z,94990.00
2023-04-08T13:57:30.063Z,95000.56
2023-04-08T13:59:59.085Z,94997.09
2023-04-08T14:02:26.089Z,95001.38
2023-04-08T14:10:14.709Z,94999.53
2023-04-08T14:12:43.511Z,95000.56
2023-04-08T14:15:10.409Z,94996.91
2023-04-08T14:17:40.617Z,95005.84
2023-04-08T14:20:08.442Z,95000.56
2023-04-08T14:22:35.490Z,94998.94
2023-04-08T14:25:04.349Z,94997.09
2023-04-08T14:27:31.437Z,94990.00
2023-04-08T14:29:58.201Z,94993.66
2023-04-08T14:32:25.007Z,94989.19
2023-04-08T14:34:53.860Z,94995.28
2023-04-08T14:37:22.825Z,94988.38
2023-04-08T14:39:49.439Z,94992.84
2023-04-08T14:42:18.264Z,94985.94
2023-04-08T14:44:47.650Z,94989.41
2023-04-08T14:47:14.367Z,94986.78
2023-04-08T14:49:43.956Z,94993.66
2023-04-08T14:52:12.812Z,94993.66
2023-04-08T14:54:44.226Z,94988.59
2023-04-08T14:57:11.502Z,94992.06
2023-04-08T14:59:38.188Z,94992.06
2023-04-08T15:02:09.605Z,94985.94
2023-04-08T15:04:36.385Z,94983.50
2023-04-08T15:07:05.338Z,94981.47
2023-04-08T15:09:32.091Z,94986.78
2023-04-08T15:12:03.747Z,94990.41
2023-04-08T15:14:30.584Z,94989.63
2023-04-08T15:16:57.274Z,94994.91
2023-04-08T15:19:26.400Z,94994.91
2023-04-08T15:21:57.726Z,94988.78
2023-04-08T15:24:24.652Z,94995.69
2023-04-08T15:26:53.491Z,94999.34
2023-04-08T15:29:23.352Z,95006.25
2023-04-08T15:31:50.128Z,94998.56
2023-04-08T15:34:16.960Z,94997.75
2023-04-08T15:36:45.847Z,94998.56
2023-04-08T15:39:12.549Z,94997.75
2023-04-08T15:41:39.300Z,94998.56
2023-04-08T15:44:08.128Z,94997.75
2023-04-08T15:46:38.122Z,94997.75
2023-04-08T15:49:07.113Z,94992.47
2023-04-08T15:51:35.919Z,94992.47
2023-04-08T15:54:04.871Z,94997.75
2023-04-08T15:56:33.965Z,94996.13
2023-04-08T16:01:35.941Z,94993.50
2023-04-08T16:04:05.199Z,94996.94
2023-04-08T16:06:36.842Z,95003.03
2023-04-08T16:09:03.609Z,95007.53
2023-04-08T16:11:32.881Z,95005.09
2023-04-08T16:14:05.147Z,95011.97
2023-04-08T16:16:33.150Z,95011.97
2023-04-08T16:19:04.129Z,95015.44
2023-04-08T16:21:36.306Z,95020.94
2023-04-08T16:24:07.663Z,95015.66
2023-04-08T16:26:34.318Z,95017.28
2023-04-08T16:29:03.229Z,95026.22
2023-04-08T16:31:32.122Z,95027.03
2023-04-08T16:33:58.893Z,95027.03
2023-04-08T16:36:27.756Z,95026.22
2023-04-08T16:38:58.898Z,95029.88
2023-04-08T16:41:27.886Z,95028.88
2023-04-08T16:46:43.889Z,95035.16
2023-04-08T16:49:12.967Z,95031.50
2023-04-08T16:51:42.912Z,95032.53
2023-04-08T16:54:09.591Z,95029.88
2023-04-08T16:56:44.276Z,95041.28
2023-04-08T16:59:14.071Z,95039.66
2023-04-08T17:01:40.865Z,95039.66
2023-04-08T17:04:07.631Z,95051.03
2023-04-08T17:06:35.825Z,95054.69
2023-04-08T17:09:05.973Z,95059.16
2023-04-08T17:11:32.607Z,95064.25
2023-04-08T17:14:06.830Z,95063.63
2023-04-08T17:16:36.269Z,95077.44
2023-04-08T17:19:07.784Z,95075.00
2023-04-08T17:21:42.095Z,95081.13
2023-04-08T17:24:16.088Z,95094.31
2023-04-08T17:26:42.809Z,95088.41
2023-04-08T17:29:14.224Z,95090.03
2023-04-08T17:31:46.225Z,95096.34
2023-04-08T17:34:16.077Z,95101.63
2023-04-08T17:36:44.891Z,95111.38
2023-04-08T17:39:11.547Z,95120.13
2023-04-08T17:41:41.011Z,95126.19
2023-04-08T17:44:10.518Z,95130.69
2023-04-08T17:46:37.310Z,95126.44
2023-04-08T17:49:04.024Z,95139.63
2023-04-08T17:51:31.031Z,95140.44
2023-04-08T17:54:02.679Z,95145.72
2023-04-08T17:56:29.572Z,95153.66
2023-04-08T17:58:56.445Z,95151.81
2023-04-08T18:01:23.312Z,95152.84
2023-04-08T18:03:52.387Z,95156.28
2023-04-08T18:06:19.510Z,95153.88
2023-04-08T18:08:50.854Z,95153.88
2023-04-08T18:11:19.739Z,95164.44
2023-04-08T18:13:48.727Z,95161.81
2023-04-08T18:16:20.979Z,95164.44
2023-04-08T18:18:52.472Z,95159.16
2023-04-08T18:21:19.317Z,95158.34
2023-04-08T18:23:48.324Z,95163.63
2023-04-08T18:26:17.416Z,95170.75
2023-04-08T18:28:46.507Z,95176.03
2023-04-08T18:31:15.685Z,95179.47
2023-04-08T18:33:42.702Z,95180.28
2023-04-08T18:36:10.254Z,95178.69
2023-04-08T18:38:44.728Z,95178.69
2023-04-08T18:41:16.402Z,95178.69
2023-04-08T18:43:43.039Z,95176.22
2023-04-08T18:46:12.100Z,95187.63
2023-04-08T18:48:41.146Z,95181.50
2023-04-08T18:51:12.546Z,95175.22
2023-04-08T18:53:41.993Z,95177.06
2023-04-08T18:56:19.908Z,95182.34
2023-04-08T18:58:48.751Z,95191.25
2023-04-08T19:01:18.396Z,95191.25
2023-04-08T19:03:47.302Z,95198.19
2023-04-08T19:06:16.194Z,95192.09
2023-04-08T19:08:43.042Z,95192.09
2023-04-08T19:11:12.208Z,95191.25
2023-04-08T19:13:39.674Z,95208.75
2023-04-08T19:16:07.108Z,95201.81
2023-04-08T19:18:36.262Z,95208.75
2023-04-08T19:21:05.129Z,95212.41
2023-04-08T19:23:32.140Z,95222.97
2023-04-08T19:26:05.282Z,95216.06
2023-04-08T19:28:34.248Z,95223.78
2023-04-08T19:31:03.611Z,95221.34
2023-04-08T19:33:32.808Z,95228.25
2023-04-08T19:36:02.971Z,95227.44
2023-04-08T19:38:39.590Z,95235.38
2023-04-08T19:41:11.698Z,95234.56
2023-04-08T19:43:40.659Z,95229.28
2023-04-08T19:46:12.268Z,95234.56
2023-04-08T19:48:41.639Z,95231.91
2023-04-08T19:51:17.063Z,95235.38
2023-04-08T19:53:43.883Z,95239.63
2023-04-08T19:56:12.950Z,95227.44
2023-04-08T19:58:44.296Z,95230.09
2023-04-08T20:01:14.088Z,95231.91
2023-04-08T20:03:50.745Z,95231.91
2023-04-08T20:06:19.829Z,95227.44
2023-04-08T20:08:50.304Z,95235.38
2023-04-08T20:11:19.657Z,95226.63
2023-04-08T20:13:50.022Z,95225.84
2023-04-08T20:16:22.201Z,95226.63
2023-04-08T20:18:49.166Z,95225.00
2023-04-08T20:21:16.000Z,95224.22
2023-04-08T20:23:44.938Z,95230.28
2023-04-08T20:26:15.597Z,95225.84
2023-04-08T20:28:46.181Z,95232.34
2023-04-08T20:31:14.991Z,95228.66
2023-04-08T20:33:45.506Z,95235.56
2023-04-08T20:36:12.504Z,95238.22
2023-04-08T20:38:41.929Z,95230.28
2023-04-08T20:41:11.213Z,95232.94
2023-04-08T20:43:42.580Z,95235.56
2023-04-08T20:46:11.414Z,95231.31
2023-04-08T20:48:38.108Z,95235.56
2023-04-08T20:51:09.702Z,95235.81
2023-04-08T20:53:42.083Z,95232.13
2023-04-08T20:56:10.631Z,95228.66
2023-04-08T20:58:52.260Z,95218.53
2023-04-08T21:01:22.049Z,95225.00
2023-04-08T21:03:53.540Z,95229.50
2023-04-08T21:06:20.878Z,95222.59
2023-04-08T21:08:52.464Z,95229.50
2023-04-08T21:11:23.919Z,95223.38
2023-04-08T21:13:50.763Z,95226.03
2023-04-08T21:16:20.568Z,95223.38
2023-04-08T21:18:47.738Z,95223.38
2023-04-08T21:21:14.477Z,95219.94
2023-04-08T21:23:43.373Z,95218.09
2023-04-08T21:26:13.592Z,95213.84
2023-04-08T21:28:40.764Z,95218.09
2023-04-08T21:31:09.060Z,95218.09
2023-04-08T21:33:38.171Z,95219.72
2023-04-08T21:36:07.779Z,95216.47
2023-04-08T21:38:37.711Z,95216.47
2023-04-08T21:43:51.127Z,95211.63
2023-04-08T21:46:18.038Z,95211.19
2023-04-08T21:48:46.883Z,95216.47
2023-04-08T21:51:18.896Z,95226.25
2023-04-08T21:53:48.015Z,95214.88
2023-04-08T21:56:19.922Z,95210.41
2023-04-08T21:58:52.430Z,95209.59
2023-04-08T22:01:19.535Z,95213.84
2023-04-08T22:03:46.357Z,95211.19
2023-04-08T22:06:22.083Z,95208.78
2023-04-08T22:08:58.173Z,95208.78
2023-04-08T22:11:24.969Z,95207.97
2023-04-08T22:13:51.921Z,95206.94
2023-04-08T22:16:20.781Z,95211.19
2023-04-08T22:18:52.362Z,95205.91
2023-04-08T22:21:26.259Z,95206.16
2023-04-08T22:23:57.955Z,95199.00
2023-04-08T22:26:24.602Z,95199.00
2023-04-08T22:28:51.607Z,95194.75
2023-04-08T22:31:18.601Z,95193.72
2023-04-08T22:33:48.086Z,95199.00
2023-04-08T22:36:22.690Z,95201.88
2023-04-08T22:38:49.749Z,95201.06
2023-04-08T22:41:20.798Z,95201.06
2023-04-08T22:43:47.664Z,95194.16
2023-04-08T22:46:14.587Z,95198.41
2023-04-08T22:48:41.686Z,95201.88
2023-04-08T22:51:08.594Z,95195.78
2023-04-08T22:53:35.289Z,95201.06
2023-04-08T22:56:04.254Z,95195.78
2023-04-08T22:58:35.632Z,95188.88
2023-04-08T23:01:05.220Z,95193.13
2023-04-08T23:03:37.015Z,95196.78
2023-04-08T23:06:06.367Z,95195.78
2023-04-08T23:08:38.897Z,95190.50
2023-04-08T23:11:08.854Z,95185.22
2023-04-08T23:13:40.148Z,95179.94
2023-04-08T23:16:06.924Z,95178.31
2023-04-08T23:18:38.985Z,95185.22
2023-04-08T23:21:07.836Z,95179.09
2023-04-08T23:23:34.490Z,95173.03
2023-04-08T23:26:04.382Z,95168.53
2023-04-08T23:28:31.078Z,95167.75
2023-04-08T23:30:57.806Z,95165.09
2023-04-08T23:33:24.471Z,95167.75
2023-04-08T23:35:53.851Z,95163.47
2023-04-08T23:38:20.574Z,95157.16
2023-04-08T23:40:50.791Z,95151.06
2023-04-08T23:43:20.184Z,95157.97
2023-04-08T23:45:49.015Z,95154.72
2023-04-08T23:48:15.676Z,95163.47
2023-04-08T23:50:42.418Z,95155.56
2023-04-08T23:53:09.198Z,95152.91
2023-04-08T23:55:38.032Z,95155.56
2023-04-08T23:58:10.111Z,95155.56
